createdAt,value
2017-01-07T00:00:09.204Z,1028.63
2017-01-07T00:01:09.082Z,1028.58
2017-01-07T00:02:09.052Z,1028.55
2017-01-07T00:03:09.022Z,1028.5
2017-01-07T00:04:08.991Z,1028.53
2017-01-07T00:05:08.968Z,1028.58
2017-01-07T00:06:08.927Z,1028.64
2017-01-07T00:07:08.901Z,1028.64
2017-01-07T00:08:08.873Z,1028.64
2017-01-07T00:09:08.841Z,1028.61
2017-01-07T00:10:08.821Z,1028.54
2017-01-07T00:11:08.788Z,1028.54
2017-01-07T00:12:08.749Z,1028.55
2017-01-07T00:13:08.723Z,1028.55
2017-01-07T00:14:08.695Z,1028.56
2017-01-07T00:15:08.664Z,1028.57
2017-01-07T00:16:08.636Z,1028.58
2017-01-07T00:17:08.605Z,1028.56
2017-01-07T00:18:08.574Z,1028.6
2017-01-07T00:19:08.544Z,1028.6
2017-01-07T00:20:08.513Z,1028.56
2017-01-07T00:21:08.482Z,1028.59
2017-01-07T00:22:08.452Z,1028.54
2017-01-07T00:23:08.421Z,1028.5
2017-01-07T00:24:08.390Z,1028.47
2017-01-07T00:25:08.370Z,1028.48
2017-01-07T00:26:08.329Z,1028.44
2017-01-07T00:27:08.314Z,1028.49
2017-01-07T00:28:08.276Z,1028.51
2017-01-07T00:29:08.250Z,1028.49
2017-01-07T00:30:08.217Z,1028.51
2017-01-07T00:31:08.181Z,1028.46
2017-01-07T00:32:08.150Z,1028.45
2017-01-07T00:33:08.120Z,1028.43
2017-01-07T00:34:08.103Z,1028.39
2017-01-07T00:35:08.060Z,1028.36
2017-01-07T00:36:08.037Z,1028.36
2017-01-07T00:37:08.001Z,1028.37
2017-01-07T00:38:07.974Z,1028.39
2017-01-07T00:39:07.942Z,1028.42
2017-01-07T00:40:07.912Z,1028.43
2017-01-07T00:41:07.882Z,1028.46
2017-01-07T00:42:07.851Z,1028.44
2017-01-07T00:43:07.871Z,1028.5
2017-01-07T00:44:07.794Z,1028.47
2017-01-07T00:45:07.767Z,1028.48
2017-01-07T00:46:07.732Z,1028.51
2017-01-07T00:47:07.706Z,1028.47
2017-01-07T00:48:07.675Z,1028.45
2017-01-07T00:49:07.645Z,1028.36
2017-01-07T00:50:07.611Z,1028.24
2017-01-07T00:51:07.587Z,1028.16
2017-01-07T00:52:07.552Z,1028.07
2017-01-07T00:53:07.523Z,1028.07
2017-01-07T00:54:07.494Z,1028.13
2017-01-07T00:55:07.460Z,1028.25
2017-01-07T00:56:07.429Z,1028.24
2017-01-07T00:57:07.401Z,1028.19
2017-01-07T00:58:07.372Z,1028.16
2017-01-07T00:59:07.340Z,1028.15
2017-01-07T01:00:07.310Z,1028.16
2017-01-07T01:01:07.285Z,1028.16
2017-01-07T01:02:07.253Z,1028.2
2017-01-07T01:03:07.225Z,1028.23
2017-01-07T01:04:07.190Z,1028.22
2017-01-07T01:05:07.166Z,1028.23
2017-01-07T01:06:07.134Z,1028.19
2017-01-07T01:07:07.101Z,1028.17
2017-01-07T01:08:07.073Z,1028.12
2017-01-07T01:09:07.042Z,1028.19
2017-01-07T01:10:07.006Z,1028.16
2017-01-07T01:11:06.984Z,1028.18
2017-01-07T01:12:06.951Z,1028.2
2017-01-07T01:13:06.919Z,1028.22
2017-01-07T01:14:06.887Z,1028.19
2017-01-07T01:15:06.860Z,1028.21
2017-01-07T01:16:06.830Z,1028.21
2017-01-07T01:17:06.797Z,1028.22
2017-01-07T01:18:06.768Z,1028.19
2017-01-07T01:19:06.739Z,1028.16
2017-01-07T01:20:06.709Z,1028.14
2017-01-07T01:21:06.687Z,1028.16
2017-01-07T01:22:06.650Z,1028.11
2017-01-07T01:23:06.625Z,1028.12
2017-01-07T01:24:06.590Z,1028.04
2017-01-07T01:25:06.561Z,1028.06
2017-01-07T01:26:06.532Z,1028.09
2017-01-07T01:27:06.502Z,1028.02
2017-01-07T01:28:06.472Z,1028.13
2017-01-07T01:29:06.441Z,1028.07
2017-01-07T01:30:06.407Z,1028.11
2017-01-07T01:31:06.378Z,1028.11
2017-01-07T01:32:06.348Z,1028.07
2017-01-07T01:33:06.318Z,1028.06
2017-01-07T01:34:06.292Z,1028.02
2017-01-07T01:35:06.268Z,1028.04
2017-01-07T01:36:06.233Z,1028.05
2017-01-07T01:37:06.199Z,1028.04
2017-01-07T01:38:06.173Z,1028.06
2017-01-07T01:39:06.144Z,1028.13
2017-01-07T01:40:06.109Z,1028.14
2017-01-07T01:41:06.077Z,1028.16
2017-01-07T01:42:06.050Z,1028.13
2017-01-07T01:43:06.021Z,1028.1
2017-01-07T01:44:05.987Z,1028.1
2017-01-07T01:45:05.961Z,1028.02
2017-01-07T01:46:05.931Z,1027.98
2017-01-07T01:47:05.899Z,1027.97
2017-01-07T01:48:05.870Z,1028.03
2017-01-07T01:49:05.838Z,1027.94
2017-01-07T01:50:05.803Z,1027.95
2017-01-07T01:51:05.774Z,1027.94
2017-01-07T01:52:05.746Z,1027.92
2017-01-07T01:53:05.715Z,1027.93
2017-01-07T01:54:05.685Z,1027.85
2017-01-07T01:55:05.655Z,1027.84
2017-01-07T01:56:05.626Z,1027.71
2017-01-07T01:57:05.595Z,1027.74
2017-01-07T01:58:05.567Z,1027.71
2017-01-07T01:59:05.538Z,1027.72
2017-01-07T02:00:05.511Z,1027.73
2017-01-07T02:01:05.529Z,1027.74
2017-01-07T02:02:05.444Z,1027.72
2017-01-07T02:03:05.431Z,1027.7
2017-01-07T02:04:05.389Z,1027.68
2017-01-07T02:05:05.458Z,1027.64
2017-01-07T02:06:05.328Z,1027.63
2017-01-07T02:07:05.348Z,1027.61
2017-01-07T02:08:05.265Z,1027.62
2017-01-07T02:09:05.275Z,1027.6
2017-01-07T02:10:05.207Z,1027.6
2017-01-07T02:11:05.181Z,1027.62
2017-01-07T02:12:05.150Z,1027.62
2017-01-07T02:13:05.114Z,1027.63
2017-01-07T02:14:05.085Z,1027.63
2017-01-07T02:15:05.057Z,1027.64
2017-01-07T02:16:05.032Z,1027.62
2017-01-07T02:17:05.013Z,1027.63
2017-01-07T02:18:04.966Z,1027.63
2017-01-07T02:19:04.941Z,1027.66
2017-01-07T02:20:04.907Z,1027.71
2017-01-07T02:21:04.880Z,1027.67
2017-01-07T02:22:04.849Z,1027.61
2017-01-07T02:23:04.819Z,1027.68
2017-01-07T02:24:04.785Z,1027.66
2017-01-07T02:25:04.759Z,1027.64
2017-01-07T02:26:04.726Z,1027.66
2017-01-07T02:27:04.696Z,1027.63
2017-01-07T02:28:04.666Z,1027.64
2017-01-07T02:29:04.644Z,1027.6
2017-01-07T02:30:04.611Z,1027.58
2017-01-07T02:31:04.583Z,1027.55
2017-01-07T02:32:04.550Z,1027.55
2017-01-07T02:33:04.521Z,1027.58
2017-01-07T02:34:04.487Z,1027.55
2017-01-07T02:35:04.457Z,1027.48
2017-01-07T02:36:04.426Z,1027.39
2017-01-07T02:37:04.401Z,1027.37
2017-01-07T02:38:04.369Z,1027.4
2017-01-07T02:39:04.340Z,1027.44
2017-01-07T02:40:04.313Z,1027.42
2017-01-07T02:41:04.277Z,1027.4
2017-01-07T02:42:04.250Z,1027.43
2017-01-07T02:43:04.216Z,1027.46
2017-01-07T02:44:04.187Z,1027.46
2017-01-07T02:45:04.160Z,1027.41
2017-01-07T02:46:04.135Z,1027.41
2017-01-07T02:47:04.105Z,1027.4
2017-01-07T02:48:04.074Z,1027.36
2017-01-07T02:49:04.040Z,1027.31
2017-01-07T02:50:04.013Z,1027.26
2017-01-07T02:51:03.977Z,1027.22
2017-01-07T02:52:03.950Z,1027.17
2017-01-07T02:53:03.922Z,1027.2
2017-01-07T02:54:03.890Z,1027.19
2017-01-07T02:55:03.861Z,1027.16
2017-01-07T02:56:03.829Z,1027.11
2017-01-07T02:57:03.801Z,1027.14
2017-01-07T02:58:03.774Z,1027.17
2017-01-07T02:59:03.741Z,1027.2
2017-01-07T03:00:03.717Z,1027.18
2017-01-07T03:01:03.678Z,1027.2
2017-01-07T03:02:03.655Z,1027.24
2017-01-07T03:03:03.628Z,1027.19
2017-01-07T03:04:03.595Z,1027.18
2017-01-07T03:05:03.564Z,1027.18
2017-01-07T03:06:03.533Z,1027.21
2017-01-07T03:07:03.500Z,1027.13
2017-01-07T03:08:03.472Z,1027.15
2017-01-07T03:09:03.441Z,1027.07
2017-01-07T03:10:03.422Z,1027.07
2017-01-07T03:11:03.382Z,1027.03
2017-01-07T03:12:03.350Z,1027.07
2017-01-07T03:13:03.321Z,1027.01
2017-01-07T03:14:03.299Z,1027
2017-01-07T03:15:03.264Z,1027.02
2017-01-07T03:16:03.232Z,1026.99
2017-01-07T03:17:03.203Z,1026.98
2017-01-07T03:18:03.171Z,1027
2017-01-07T03:19:03.144Z,1027.05
2017-01-07T03:20:03.114Z,1027.03
2017-01-07T03:21:03.086Z,1027.04
2017-01-07T03:22:03.050Z,1027.02
2017-01-07T03:23:03.024Z,1027.04
2017-01-07T03:24:02.992Z,1027.01
2017-01-07T03:25:02.964Z,1027.02
2017-01-07T03:26:02.933Z,1027.02
2017-01-07T03:27:02.906Z,1027.04
2017-01-07T03:28:02.872Z,1027.05
2017-01-07T03:29:02.842Z,1027.04
2017-01-07T03:30:02.815Z,1027.03
2017-01-07T03:31:02.783Z,1027.02
2017-01-07T03:32:02.758Z,1027.05
2017-01-07T03:33:02.726Z,1027.02
2017-01-07T03:34:02.696Z,1027.01
2017-01-07T03:35:02.665Z,1027.02
2017-01-07T03:36:02.639Z,1027
2017-01-07T03:37:02.608Z,1026.99
2017-01-07T03:38:02.581Z,1027.02
2017-01-07T03:39:02.546Z,1027.02
2017-01-07T03:40:02.516Z,1027.02
2017-01-07T03:41:02.487Z,1027.03
2017-01-07T03:42:02.458Z,1027.03
2017-01-07T03:43:02.426Z,1026.99
2017-01-07T03:44:02.403Z,1026.95
2017-01-07T03:45:02.371Z,1026.93
2017-01-07T03:46:02.337Z,1026.87
2017-01-07T03:47:02.308Z,1026.92
2017-01-07T03:48:02.278Z,1026.86
2017-01-07T03:49:02.245Z,1026.89
2017-01-07T03:50:02.219Z,1026.84
2017-01-07T03:51:02.189Z,1026.82
2017-01-07T03:52:02.157Z,1026.82
2017-01-07T03:53:02.130Z,1026.75
2017-01-07T03:54:02.100Z,1026.77
2017-01-07T03:55:02.069Z,1026.77
2017-01-07T03:56:02.039Z,1026.78
2017-01-07T03:57:02.007Z,1026.81
2017-01-07T03:58:01.979Z,1026.86
2017-01-07T03:59:01.953Z,1026.78
2017-01-07T04:00:01.924Z,1026.75
2017-01-07T04:01:01.895Z,1026.75
2017-01-07T04:02:01.865Z,1026.8
2017-01-07T04:03:01.833Z,1026.77
2017-01-07T04:04:01.804Z,1026.76
2017-01-07T04:05:01.777Z,1026.69
2017-01-07T04:06:01.740Z,1026.67
2017-01-07T04:07:01.714Z,1026.63
2017-01-07T04:08:01.684Z,1026.71
2017-01-07T04:09:01.650Z,1026.63
2017-01-07T04:10:01.623Z,1026.58
2017-01-07T04:11:01.592Z,1026.56
2017-01-07T04:12:01.559Z,1026.59
2017-01-07T04:13:01.532Z,1026.51
2017-01-07T04:14:01.502Z,1026.58
2017-01-07T04:15:01.470Z,1026.55
2017-01-07T04:16:01.443Z,1026.55
2017-01-07T04:17:01.412Z,1026.54
2017-01-07T04:18:01.379Z,1026.51
2017-01-07T04:19:01.359Z,1026.52
2017-01-07T04:20:01.334Z,1026.52
2017-01-07T04:21:01.288Z,1026.52
2017-01-07T04:22:01.264Z,1026.46
2017-01-07T04:23:01.229Z,1026.53
2017-01-07T04:24:01.203Z,1026.48
2017-01-07T04:25:01.170Z,1026.49
2017-01-07T04:26:01.146Z,1026.53
2017-01-07T04:27:01.115Z,1026.49
2017-01-07T04:28:01.085Z,1026.41
2017-01-07T04:29:01.055Z,1026.41
2017-01-07T04:30:01.023Z,1026.39
2017-01-07T04:31:00.996Z,1026.32
2017-01-07T04:32:00.964Z,1026.32
2017-01-07T04:33:00.932Z,1026.26
2017-01-07T04:34:00.898Z,1026.24
2017-01-07T04:35:00.871Z,1026.25
2017-01-07T04:36:00.842Z,1026.26
2017-01-07T04:37:00.812Z,1026.26
2017-01-07T04:38:00.780Z,1026.26
2017-01-07T04:39:00.750Z,1026.2
2017-01-07T04:40:00.720Z,1026.23
2017-01-07T04:41:00.688Z,1026.23
2017-01-07T04:42:00.659Z,1026.18
2017-01-07T04:43:00.638Z,1026.21
2017-01-07T04:44:00.597Z,1026.19
2017-01-07T04:45:00.567Z,1026.21
2017-01-07T04:46:00.536Z,1026.23
2017-01-07T04:47:00.506Z,1026.16
2017-01-07T04:48:00.475Z,1026.14
2017-01-07T04:49:00.446Z,1026.13
2017-01-07T04:50:00.418Z,1026.13
2017-01-07T04:51:00.384Z,1026.15
2017-01-07T04:52:00.359Z,1026.11
2017-01-07T04:53:00.329Z,1026.14
2017-01-07T04:54:00.301Z,1026.12
2017-01-07T04:55:00.268Z,1026.1
2017-01-07T04:56:00.235Z,1026.07
2017-01-07T04:57:00.215Z,1026.11
2017-01-07T04:58:00.179Z,1026.05
2017-01-07T04:59:00.148Z,1026.11
2017-01-07T05:00:00.115Z,1026.12
2017-01-07T05:01:00.089Z,1026.13
2017-01-07T05:02:00.061Z,1026.08
2017-01-07T05:03:00.027Z,1026.07
2017-01-07T05:03:59.998Z,1026.11
2017-01-07T05:04:59.965Z,1025.99
2017-01-07T05:05:59.937Z,1025.9
2017-01-07T05:06:59.907Z,1025.93
2017-01-07T05:07:59.872Z,1025.91
2017-01-07T05:08:59.846Z,1025.87
2017-01-07T05:09:59.815Z,1025.88
2017-01-07T05:10:59.786Z,1025.9
2017-01-07T05:11:59.754Z,1025.85
2017-01-07T05:12:59.733Z,1025.86
2017-01-07T05:13:59.693Z,1025.84
2017-01-07T05:14:59.673Z,1025.84
2017-01-07T05:15:59.632Z,1025.83
2017-01-07T05:16:59.615Z,1025.86
2017-01-07T05:17:59.573Z,1025.86
2017-01-07T05:18:59.543Z,1025.92
2017-01-07T05:19:59.512Z,1025.92
2017-01-07T05:20:59.491Z,1025.93
2017-01-07T05:21:59.450Z,1025.88
2017-01-07T05:22:59.419Z,1025.89
2017-01-07T05:23:59.388Z,1025.92
2017-01-07T05:24:59.358Z,1025.87
2017-01-07T05:25:59.334Z,1025.85
2017-01-07T05:26:59.302Z,1025.83
2017-01-07T05:27:59.269Z,1025.8
2017-01-07T05:28:59.239Z,1025.81
2017-01-07T05:29:59.207Z,1025.78
2017-01-07T05:30:59.183Z,1025.75
2017-01-07T05:31:59.154Z,1025.77
2017-01-07T05:32:59.115Z,1025.75
2017-01-07T05:33:59.093Z,1025.76
2017-01-07T05:34:59.061Z,1025.8
2017-01-07T05:35:59.028Z,1025.81
2017-01-07T05:36:59.001Z,1025.81
2017-01-07T05:37:58.969Z,1025.83
2017-01-07T05:38:58.934Z,1025.82
2017-01-07T05:39:58.901Z,1025.77
2017-01-07T05:40:58.881Z,1025.94
2017-01-07T05:41:58.849Z,1025.85
2017-01-07T05:42:58.818Z,1025.77
2017-01-07T05:43:58.789Z,1025.79
2017-01-07T05:44:58.751Z,1025.79
2017-01-07T05:45:58.728Z,1025.76
2017-01-07T05:46:58.696Z,1025.8
2017-01-07T05:47:58.657Z,1025.8
2017-01-07T05:48:58.636Z,1025.8
2017-01-07T05:49:58.601Z,1025.78
2017-01-07T05:50:58.572Z,1025.77
2017-01-07T05:51:58.539Z,1025.75
2017-01-07T05:52:58.516Z,1025.81
2017-01-07T05:53:58.478Z,1025.75
2017-01-07T05:54:58.446Z,1025.72
2017-01-07T05:55:58.417Z,1025.69
2017-01-07T05:56:58.385Z,1025.69
2017-01-07T05:57:58.361Z,1025.66
2017-01-07T05:58:58.325Z,1025.7
2017-01-07T05:59:58.299Z,1025.69
2017-01-07T06:00:58.269Z,1025.69
2017-01-07T06:01:58.235Z,1025.67
2017-01-07T06:02:58.208Z,1025.69
2017-01-07T06:03:58.177Z,1025.66
2017-01-07T06:04:58.144Z,1025.7
2017-01-07T06:05:58.117Z,1025.64
2017-01-07T06:06:58.087Z,1025.63
2017-01-07T06:07:58.051Z,1025.61
2017-01-07T06:08:58.025Z,1025.64
2017-01-07T06:09:57.992Z,1025.65
2017-01-07T06:10:57.962Z,1025.61
2017-01-07T06:11:57.931Z,1025.67
2017-01-07T06:12:57.899Z,1025.61
2017-01-07T06:13:57.873Z,1025.62
2017-01-07T06:14:57.839Z,1025.65
2017-01-07T06:15:57.820Z,1025.61
2017-01-07T06:16:57.780Z,1025.58
2017-01-07T06:17:57.752Z,1025.6
2017-01-07T06:18:57.718Z,1025.55
2017-01-07T06:19:57.689Z,1025.58
2017-01-07T06:20:57.678Z,1025.61
2017-01-07T06:21:57.627Z,1025.65
2017-01-07T06:22:57.598Z,1025.6
2017-01-07T06:23:57.569Z,1025.58
2017-01-07T06:24:57.533Z,1025.55
2017-01-07T06:25:57.506Z,1025.51
2017-01-07T06:26:57.476Z,1025.51
2017-01-07T06:27:57.446Z,1025.5
2017-01-07T06:28:57.511Z,1025.49
2017-01-07T06:29:57.385Z,1025.46
2017-01-07T06:30:57.369Z,1025.43
2017-01-07T06:31:57.321Z,1025.52
2017-01-07T06:32:57.340Z,1025.46
2017-01-07T06:33:57.264Z,1025.48
2017-01-07T06:34:57.238Z,1025.42
2017-01-07T06:35:57.201Z,1025.49
2017-01-07T06:36:57.171Z,1025.47
2017-01-07T06:37:57.140Z,1025.44
2017-01-07T06:38:57.111Z,1025.46
2017-01-07T06:39:57.079Z,1025.51
2017-01-07T06:40:57.051Z,1025.48
2017-01-07T06:41:57.020Z,1025.53
2017-01-07T06:42:56.988Z,1025.58
2017-01-07T06:43:56.956Z,1025.55
2017-01-07T06:44:56.926Z,1025.54
2017-01-07T06:45:56.895Z,1025.55
2017-01-07T06:46:56.865Z,1025.55
2017-01-07T06:47:56.832Z,1025.67
2017-01-07T06:48:56.804Z,1025.56
2017-01-07T06:49:56.773Z,1025.55
2017-01-07T06:50:56.742Z,1025.53
2017-01-07T06:51:56.712Z,1025.5
2017-01-07T06:52:56.681Z,1025.51
2017-01-07T06:53:56.652Z,1025.48
2017-01-07T06:54:56.620Z,1025.42
2017-01-07T06:55:56.590Z,1025.44
2017-01-07T06:56:56.566Z,1025.39
2017-01-07T06:57:56.527Z,1025.38
2017-01-07T06:58:56.502Z,1025.41
2017-01-07T06:59:56.467Z,1025.39
2017-01-07T07:00:56.440Z,1025.33
2017-01-07T07:01:56.408Z,1025.37
2017-01-07T07:02:56.380Z,1025.37
2017-01-07T07:03:56.350Z,1025.34
2017-01-07T07:04:56.327Z,1025.33
2017-01-07T07:05:56.289Z,1025.37
2017-01-07T07:06:56.259Z,1025.32
2017-01-07T07:07:56.227Z,1025.33
2017-01-07T07:08:56.203Z,1025.34
2017-01-07T07:09:56.166Z,1025.29
2017-01-07T07:10:56.142Z,1025.31
2017-01-07T07:11:56.115Z,1025.26
2017-01-07T07:12:56.079Z,1025.25
2017-01-07T07:13:56.050Z,1025.29
2017-01-07T07:14:56.014Z,1025.25
2017-01-07T07:15:55.988Z,1025.24
2017-01-07T07:16:55.958Z,1025.28
2017-01-07T07:17:55.928Z,1025.22
2017-01-07T07:18:55.897Z,1025.26
2017-01-07T07:19:55.936Z,1025.28
2017-01-07T07:20:55.830Z,1025.24
2017-01-07T07:21:55.809Z,1025.29
2017-01-07T07:22:55.772Z,1025.26
2017-01-07T07:23:55.755Z,1025.21
2017-01-07T07:24:55.713Z,1025.23
2017-01-07T07:25:55.784Z,1025.2
2017-01-07T07:26:55.653Z,1025.24
2017-01-07T07:27:55.619Z,1025.22
2017-01-07T07:28:55.592Z,1025.24
2017-01-07T07:29:55.565Z,1025.18
2017-01-07T07:30:55.531Z,1025.24
2017-01-07T07:31:55.500Z,1025.22
2017-01-07T07:32:55.467Z,1025.21
2017-01-07T07:33:55.438Z,1025.24
2017-01-07T07:34:55.407Z,1025.2
2017-01-07T07:35:55.376Z,1025.19
2017-01-07T07:36:55.349Z,1025.18
2017-01-07T07:37:55.318Z,1025.16
2017-01-07T07:38:55.288Z,1025.16
2017-01-07T07:39:55.257Z,1025.2
2017-01-07T07:40:55.224Z,1025.15
2017-01-07T07:41:55.195Z,1025.23
2017-01-07T07:42:55.164Z,1025.18
2017-01-07T07:43:55.139Z,1025.2
2017-01-07T07:44:55.105Z,1025.15
2017-01-07T07:45:55.075Z,1025.15
2017-01-07T07:46:55.041Z,1025.16
2017-01-07T07:47:55.011Z,1025.16
2017-01-07T07:48:54.981Z,1025.16
2017-01-07T07:49:54.961Z,1025.2
2017-01-07T07:50:54.923Z,1025.18
2017-01-07T07:51:54.894Z,1025.21
2017-01-07T07:52:54.864Z,1025.21
2017-01-07T07:53:54.831Z,1025.23
2017-01-07T07:54:54.808Z,1025.21
2017-01-07T07:55:54.773Z,1025.17
2017-01-07T07:56:54.748Z,1025.14
2017-01-07T07:57:54.717Z,1025.15
2017-01-07T07:58:54.678Z,1025.13
2017-01-07T07:59:54.656Z,1025.17
2017-01-07T08:00:54.619Z,1025.13
2017-01-07T08:01:54.594Z,1025.22
2017-01-07T08:02:54.562Z,1025.13
2017-01-07T08:03:54.526Z,1025.1
2017-01-07T08:04:54.502Z,1025.06
2017-01-07T08:05:54.468Z,1025.09
2017-01-07T08:06:54.436Z,1025.11
2017-01-07T08:07:54.411Z,1025.09
2017-01-07T08:08:54.377Z,1025.13
2017-01-07T08:09:54.345Z,1025.08
2017-01-07T08:10:54.310Z,1025.09
2017-01-07T08:11:54.288Z,1025.06
2017-01-07T08:12:54.252Z,1025.07
2017-01-07T08:13:54.226Z,1025.04
2017-01-07T08:14:54.190Z,1025.01
2017-01-07T08:15:54.161Z,1025.05
2017-01-07T08:16:54.133Z,1024.97
2017-01-07T08:17:54.101Z,1024.98
2017-01-07T08:18:54.069Z,1025.02
2017-01-07T08:19:54.037Z,1025.02
2017-01-07T08:20:54.013Z,1024.96
2017-01-07T08:21:53.978Z,1024.98
2017-01-07T08:22:53.950Z,1024.98
2017-01-07T08:23:53.919Z,1024.99
2017-01-07T08:24:53.892Z,1025.01
2017-01-07T08:25:53.859Z,1024.95
2017-01-07T08:26:53.828Z,1025.02
2017-01-07T08:27:53.798Z,1024.96
2017-01-07T08:28:53.768Z,1024.95
2017-01-07T08:29:53.737Z,1024.94
2017-01-07T08:30:53.708Z,1024.92
2017-01-07T08:31:53.676Z,1024.92
2017-01-07T08:32:53.645Z,1024.87
2017-01-07T08:33:53.612Z,1024.86
2017-01-07T08:34:53.581Z,1024.81
2017-01-07T08:35:53.550Z,1024.84
2017-01-07T08:36:53.522Z,1024.83
2017-01-07T08:37:53.489Z,1024.84
2017-01-07T08:38:53.460Z,1024.83
2017-01-07T08:39:53.428Z,1024.83
2017-01-07T08:40:53.401Z,1024.78
2017-01-07T08:41:53.419Z,1024.73
2017-01-07T08:42:53.339Z,1024.7
2017-01-07T08:43:53.358Z,1024.72
2017-01-07T08:44:53.278Z,1024.68
2017-01-07T08:45:53.259Z,1024.62
2017-01-07T08:46:53.227Z,1024.57
2017-01-07T08:47:53.189Z,1024.63
2017-01-07T08:48:53.162Z,1024.63
2017-01-07T08:49:53.133Z,1024.57
2017-01-07T08:50:53.102Z,1024.58
2017-01-07T08:51:53.067Z,1024.58
2017-01-07T08:52:53.041Z,1024.56
2017-01-07T08:53:53.008Z,1024.5
2017-01-07T08:54:52.972Z,1024.49
2017-01-07T08:55:52.943Z,1024.48
2017-01-07T08:56:52.914Z,1024.53
2017-01-07T08:57:52.885Z,1024.48
2017-01-07T08:58:52.856Z,1024.46
2017-01-07T08:59:52.832Z,1024.51
2017-01-07T09:00:52.792Z,1024.48
2017-01-07T09:01:52.763Z,1024.42
2017-01-07T09:02:52.735Z,1024.4
2017-01-07T09:03:52.703Z,1024.33
2017-01-07T09:04:52.673Z,1024.33
2017-01-07T09:05:52.644Z,1024.28
2017-01-07T09:06:52.616Z,1024.3
2017-01-07T09:07:52.586Z,1024.32
2017-01-07T09:08:52.557Z,1024.26
2017-01-07T09:09:52.522Z,1024.28
2017-01-07T09:10:52.493Z,1024.25
2017-01-07T09:11:52.468Z,1024.24
2017-01-07T09:12:52.438Z,1024.29
2017-01-07T09:13:52.406Z,1024.25
2017-01-07T09:14:52.385Z,1024.27
2017-01-07T09:15:52.345Z,1024.25
2017-01-07T09:16:52.316Z,1024.3
2017-01-07T09:17:52.283Z,1024.21
2017-01-07T09:18:52.253Z,1024.22
2017-01-07T09:19:52.223Z,1024.24
2017-01-07T09:20:52.195Z,1024.2
2017-01-07T09:21:52.163Z,1024.23
2017-01-07T09:22:52.139Z,1024.18
2017-01-07T09:23:52.115Z,1024.14
2017-01-07T09:24:52.079Z,1024.19
2017-01-07T09:25:52.044Z,1024.09
2017-01-07T09:26:52.018Z,1024.09
2017-01-07T09:27:51.987Z,1024.12
2017-01-07T09:28:52.003Z,1024.09
2017-01-07T09:29:51.927Z,1024.09
2017-01-07T09:30:51.994Z,1024.15
2017-01-07T09:31:51.864Z,1024.15
2017-01-07T09:32:51.840Z,1024.11
2017-01-07T09:33:51.812Z,1024.07
2017-01-07T09:34:51.774Z,1024.09
2017-01-07T09:35:51.750Z,1024.08
2017-01-07T09:36:51.721Z,1024.08
2017-01-07T09:37:51.692Z,1024.15
2017-01-07T09:38:51.660Z,1024.14
2017-01-07T09:39:51.628Z,1024.19
2017-01-07T09:40:51.606Z,1024.08
2017-01-07T09:41:51.567Z,1024.13
2017-01-07T09:42:51.533Z,1024.13
2017-01-07T09:43:51.510Z,1024.1
2017-01-07T09:44:51.476Z,1024.17
2017-01-07T09:45:51.445Z,1024.14
2017-01-07T09:46:51.424Z,1024.14
2017-01-07T09:47:51.388Z,1024.12
2017-01-07T09:48:51.359Z,1024.14
2017-01-07T09:49:51.327Z,1024.19
2017-01-07T09:50:51.302Z,1024.16
2017-01-07T09:51:51.280Z,1024.13
2017-01-07T09:52:51.238Z,1024.14
2017-01-07T09:53:51.211Z,1024.04
2017-01-07T09:54:51.181Z,1024.09
2017-01-07T09:55:51.149Z,1023.99
2017-01-07T09:56:51.117Z,1024
2017-01-07T09:57:51.088Z,1023.99
2017-01-07T09:58:51.116Z,1023.97
2017-01-07T09:59:51.028Z,1023.97
2017-01-07T10:00:51.000Z,1023.95
2017-01-07T10:01:50.971Z,1023.94
2017-01-07T10:02:50.959Z,1023.97
2017-01-07T10:03:50.916Z,1023.94
2017-01-07T10:04:50.887Z,1023.96
2017-01-07T10:05:50.849Z,1023.95
2017-01-07T10:06:50.823Z,1023.95
2017-01-07T10:07:50.793Z,1023.88
2017-01-07T10:08:50.764Z,1023.87
2017-01-07T10:09:50.731Z,1023.84
2017-01-07T10:10:50.701Z,1023.86
2017-01-07T10:11:50.668Z,1023.85
2017-01-07T10:12:50.640Z,1023.88
2017-01-07T10:13:50.611Z,1023.81
2017-01-07T10:14:50.580Z,1023.82
2017-01-07T10:15:50.549Z,1023.83
2017-01-07T10:16:50.524Z,1023.83
2017-01-07T10:17:50.496Z,1023.84
2017-01-07T10:18:50.477Z,1023.85
2017-01-07T10:19:50.439Z,1023.86
2017-01-07T10:20:50.405Z,1023.89
2017-01-07T10:21:50.377Z,1023.83
2017-01-07T10:22:50.343Z,1023.82
2017-01-07T10:23:50.322Z,1023.77
2017-01-07T10:24:50.282Z,1023.79
2017-01-07T10:25:50.261Z,1023.79
2017-01-07T10:26:50.231Z,1023.79
2017-01-07T10:27:50.197Z,1023.77
2017-01-07T10:28:50.165Z,1023.73
2017-01-07T10:29:50.136Z,1023.76
2017-01-07T10:30:50.104Z,1023.72
2017-01-07T10:31:50.081Z,1023.7
2017-01-07T10:32:50.046Z,1023.66
2017-01-07T10:33:50.018Z,1023.68
2017-01-07T10:34:49.989Z,1023.63
2017-01-07T10:35:49.956Z,1023.55
2017-01-07T10:36:49.925Z,1023.62
2017-01-07T10:37:49.903Z,1023.57
2017-01-07T10:38:49.872Z,1023.56
2017-01-07T10:39:49.844Z,1023.54
2017-01-07T10:40:49.813Z,1023.52
2017-01-07T10:41:49.784Z,1023.51
2017-01-07T10:42:49.754Z,1023.52
2017-01-07T10:43:49.722Z,1023.51
2017-01-07T10:44:49.691Z,1023.54
2017-01-07T10:45:49.660Z,1023.52
2017-01-07T10:46:49.631Z,1023.54
2017-01-07T10:47:49.611Z,1023.59
2017-01-07T10:48:49.580Z,1023.53
2017-01-07T10:49:49.551Z,1023.55
2017-01-07T10:50:49.522Z,1023.52
2017-01-07T10:51:49.489Z,1023.68
2017-01-07T10:52:49.459Z,1023.62
2017-01-07T10:53:49.427Z,1023.58
2017-01-07T10:54:49.398Z,1023.58
2017-01-07T10:55:49.368Z,1023.59
2017-01-07T10:56:49.345Z,1023.55
2017-01-07T10:57:49.313Z,1023.54
2017-01-07T10:58:49.283Z,1023.58
2017-01-07T10:59:49.257Z,1023.57
2017-01-07T11:00:49.276Z,1023.49
2017-01-07T11:01:49.196Z,1023.52
2017-01-07T11:02:49.167Z,1023.54
2017-01-07T11:03:49.144Z,1023.57
2017-01-07T11:04:49.107Z,1023.61
2017-01-07T11:05:49.083Z,1023.55
2017-01-07T11:06:49.046Z,1023.6
2017-01-07T11:07:49.025Z,1023.56
2017-01-07T11:08:48.990Z,1023.56
2017-01-07T11:09:48.961Z,1023.58
2017-01-07T11:10:48.935Z,1023.64
2017-01-07T11:11:48.910Z,1023.58
2017-01-07T11:12:48.879Z,1023.61
2017-01-07T11:13:48.850Z,1023.58
2017-01-07T11:14:48.820Z,1023.55
2017-01-07T11:15:48.791Z,1023.49
2017-01-07T11:16:48.759Z,1023.47
2017-01-07T11:17:48.731Z,1023.45
2017-01-07T11:18:48.709Z,1023.44
2017-01-07T11:19:48.671Z,1023.43
2017-01-07T11:20:48.646Z,1023.38
2017-01-07T11:21:48.616Z,1023.43
2017-01-07T11:22:48.586Z,1023.38
2017-01-07T11:23:48.553Z,1023.35
2017-01-07T11:24:48.526Z,1023.31
2017-01-07T11:25:48.505Z,1023.35
2017-01-07T11:26:48.472Z,1023.3
2017-01-07T11:27:48.438Z,1023.31
2017-01-07T11:28:48.414Z,1023.31
2017-01-07T11:29:48.386Z,1023.33
2017-01-07T11:30:48.362Z,1023.27
2017-01-07T11:31:48.322Z,1023.3
2017-01-07T11:32:48.294Z,1023.31
2017-01-07T11:33:48.268Z,1023.28
2017-01-07T11:34:48.237Z,1023.28
2017-01-07T11:35:48.220Z,1023.18
2017-01-07T11:36:48.179Z,1023.14
2017-01-07T11:37:48.151Z,1023.14
2017-01-07T11:38:48.124Z,1023.13
2017-01-07T11:39:48.100Z,1023.15
2017-01-07T11:40:48.057Z,1023.15
2017-01-07T11:41:48.037Z,1023.2
2017-01-07T11:42:48.000Z,1023.15
2017-01-07T11:43:47.975Z,1023.18
2017-01-07T11:44:47.946Z,1023.15
2017-01-07T11:45:47.916Z,1023.15
2017-01-07T11:46:47.884Z,1023.2
2017-01-07T11:47:47.854Z,1023.07
2017-01-07T11:48:47.825Z,1023.02
2017-01-07T11:49:47.801Z,1023.03
2017-01-07T11:50:47.770Z,1022.99
2017-01-07T11:51:47.842Z,1023.03
2017-01-07T11:52:47.711Z,1022.97
2017-01-07T11:53:47.725Z,1023
2017-01-07T11:54:47.655Z,1022.91
2017-01-07T11:55:47.628Z,1022.91
2017-01-07T11:56:47.593Z,1022.93
2017-01-07T11:57:47.570Z,1022.89
2017-01-07T11:58:47.534Z,1022.92
2017-01-07T11:59:47.511Z,1022.85
2017-01-07T12:00:47.479Z,1022.84
2017-01-07T12:01:47.449Z,1022.85
2017-01-07T12:02:47.430Z,1022.78
2017-01-07T12:03:47.389Z,1022.84
2017-01-07T12:04:47.360Z,1022.78
2017-01-07T12:05:47.333Z,1022.81
2017-01-07T12:06:47.304Z,1022.82